Terminal Aerodrome Forecast
Issued by NWS

Home | Current Version | Previous Version | Text Only | Print | Product List | Glossary On
Versions: 1 2 3 4 5 6 7 8 9 10 11 12 13 14 15
087
FTUS43 KOAX 280947 AAA
TAFBFF
TAF AMD
KBFF 280947Z 2810/2906 09013KT 4SM -RASN BKN007 OVC012
      TEMPO 2810/2813 1SM -SN OVC005
     FM281300 02017KT 2SM -SN BKN008 OVC015=

USA.gov is the U.S. government's official web portal to all federal, state and local government web resources and services.